Flight Track Log - Related Links

Times and Time Zones

All times are in EDT time to prevent confusion due to time zone crossing. See the SWA998 flight status page for this flight to view local times or setup timezone preferences in your user account.


Time Position Orientation Groundspeed Altitude Reporting Facility
EDT Latitude Longitude Course Direction KTS MPH feet Rate Location/Type
Sun 04:21:44 PM 26.0783 -80.1267 312° West 164 189 900  Level Miami Center
Sun 04:22:51 PM 26.1036 -80.0589 67° East 249 287 2,800 1,348 Climbing Miami Center
Sun 04:23:13 PM 26.1217 -80.0433 38° Northeast 260 299 2,900 1,475 Climbing Miami Center
Sun 04:23:52 PM 26.1725 -80.0594 344° North 296 341 4,300 2,032 Climbing Miami Center
Sun 04:24:15 PM 26.1844 -80.0817 301° West 291 335 5,000 3,148 Climbing Miami Center
Sun 04:24:53 PM 26.2008 -80.1453 286° West 277 319 7,500 2,710 Climbing Miami Center
Sun 04:25:17 PM 26.2128 -80.1628 307° West 284 327 7,800 2,163 Climbing Miami Center
Sun 04:26:19 PM 26.2969 -80.2283 325° Northwest 305 351 10,600 2,032 Climbing Miami Center
Sun 04:27:00 PM 26.2860 -80.2491 312° West  Level FlightAware Approximate
Sun 04:27:21 PM 26.3806 -80.2839 329° Northwest 355 409 12,000  Level Miami Center
Sun 04:28:24 PM 26.4675 -80.3431 329° Northwest 365 420 14,100 2,064 Climbing Miami Center
Sun 04:29:26 PM 26.5650 -80.4100 328° Northwest 379 436 16,300 1,839 Climbing Miami Center
Sun 04:30:28 PM 26.6653 -80.4581 337° Northwest 397 457 17,900 1,742 Climbing Miami Center
Sun 04:31:30 PM 26.7772 -80.5094 338° Northwest 401 461 19,900 1,632 Climbing Miami Center
Sun 04:32:33 PM 26.8753 -80.5547 338° Northwest 408 470 21,300 1,296 Climbing Miami Center
Sun 04:33:35 PM 26.9847 -80.6050 338° Northwest 421 484 22,600 1,355 Climbing Miami Center
Sun 04:34:37 PM 27.0950 -80.6564 337° Northwest 426 490 24,100 1,500 Climbing Miami Center
Sun 04:35:39 PM 27.2278 -80.7178 338° Northwest 428 493 25,700 1,248 Climbing Miami Center
Sun 04:36:42 PM 27.3406 -80.7706 337° Northwest 436 502 26,700 912 Climbing Miami Center
Sun 04:37:44 PM 27.4572 -80.8258 337° Northwest 445 512 27,600 1,065 Climbing Miami Center
Sun 04:38:46 PM 27.5731 -80.8783 338° Northwest 446 513 28,900 1,355 Climbing Miami Center
Sun 04:39:48 PM 27.6808 -80.9447 331° Northwest 442 509 30,400 1,113 Climbing Miami Center
Sun 04:40:50 PM 27.7967 -81.0439 323° Northwest 436 502 31,200 864 Climbing Miami Center
Sun 04:41:53 PM 27.8958 -81.1272 323° Northwest 440 506 32,200 912 Climbing Miami Center
Sun 04:42:55 PM 27.9981 -81.2117 324° Northwest 438 504 33,100 774 Climbing Miami Center
Sun 04:43:57 PM 28.1014 -81.2933 325° Northwest 437 503 33,800 677 Climbing Miami Center
Sun 04:44:59 PM 28.2094 -81.3683 329° Northwest 437 503 34,500 532 Climbing Miami Center
Sun 04:46:01 PM 28.3053 -81.4314 330° Northwest 436 502 34,900 194 Climbing Miami Center
Sun 04:47:03 PM 28.4094 -81.5039 329° Northwest 436 502 34,900 48 Level Miami Center
Sun 04:48:05 PM 28.5142 -81.5731 330° Northwest 436 502 35,000 48 Climbing Miami Center
Sun 04:49:08 PM 28.6436 -81.6572 330° Northwest 442 509 35,000  Level Miami Center
Sun 04:50:10 PM 28.7553 -81.7294 330° Northwest 459 528 35,000 -50 Level Miami Center
Sun 04:51:09 PM 28.8569 -81.7950 331° Northwest 451 519 34,900  Descending Jacksonville Center
Sun 04:52:09 PM 28.9719 -81.8364 343° North 445 512 35,000  Climbing Jacksonville Center
Sun 04:53:09 PM 29.0953 -81.8400 359° North 427 491 34,900  Descending Jacksonville Center
Sun 04:54:09 PM 29.2289 -81.8503 356° North 432 497 35,000 50 Climbing Jacksonville Center
Sun 04:55:09 PM 29.3542 -81.8539 359° North 437 503 35,000 -50 Level Jacksonville Center
Sun 04:56:09 PM 29.4753 -81.8597 358° North 437 503 34,900  Descending Jacksonville Center
Sun 04:57:09 PM 29.5942 -81.8536 North 437 503 35,000 50 Climbing Jacksonville Center
Sun 04:58:09 PM 29.7131 -81.8475 North 437 503 35,000  Level Jacksonville Center
Sun 04:59:09 PM 29.8342 -81.8392 North 437 503 35,000 -50 Level Jacksonville Center
Sun 05:00:09 PM 29.9553 -81.8281 North 437 503 34,900  Descending Jacksonville Center
Sun 05:01:09 PM 30.0719 -81.8100 North 432 497 35,000 50 Climbing Jacksonville Center
Sun 05:02:09 PM 30.1908 -81.7822 11° North 432 497 35,000 -50 Level Jacksonville Center
Sun 05:03:09 PM 30.3011 -81.7497 14° North 420 483 34,900  Descending Jacksonville Center
Sun 05:04:09 PM 30.4200 -81.7436 North 429 494 35,000 50 Climbing Jacksonville Center
Sun 05:05:09 PM 30.5392 -81.7589 354° North 429 494 35,000  Level Jacksonville Center
Sun 05:06:09 PM 30.6519 -81.7769 352° North 429 494 35,000  Level Jacksonville Center
Sun 05:07:09 PM 30.7733 -81.7925 354° North 429 494 35,000  Level Jacksonville Center
Sun 05:08:09 PM 30.8967 -81.8081 354° North 434 499 35,000  Level Jacksonville Center
Sun 05:09:09 PM 31.0200 -81.8236 354° North 434 499 35,000  Level Jacksonville Center
Sun 05:10:09 PM 31.1411 -81.8367 355° North 439 505 35,000  Level Jacksonville Center
Sun 05:11:09 PM 31.2625 -81.8522 354° North 439 505 35,000  Level Jacksonville Center
Sun 05:12:09 PM 31.3942 -81.8678 354° North 439 505 35,000  Level Jacksonville Center
Sun 05:13:09 PM 31.5131 -81.8811 355° North 439 505 35,000  Level Jacksonville Center
Sun 05:14:09 PM 31.6197 -81.8947 354° North 429 494 35,000  Level Jacksonville Center
Sun 05:15:09 PM 31.7494 -81.9128 353° North 424 488 35,000  Level Jacksonville Center
Sun 05:16:09 PM 31.8581 -81.9264 354° North 424 488 35,000  Level Jacksonville Center
Sun 05:17:09 PM 31.9897 -81.9447 353° North 424 488 35,000  Level Jacksonville Center
Sun 05:19:34 PM 32.2783 -81.9803 354° North 439 505 35,000  Level Atlanta Center
Sun 05:20:34 PM 32.3953 -81.9922 355° North 428 493 35,000  Level Atlanta Center
Sun 05:21:34 PM 32.5147 -82.0092 353° North 428 493 35,000  Level Atlanta Center
Sun 05:22:34 PM 32.6256 -82.0239 354° North 434 499 35,000  Level Atlanta Center
Sun 05:23:34 PM 32.7425 -82.0361 355° North 429 494 35,000  Level Atlanta Center
Sun 05:24:34 PM 32.8619 -82.0531 353° North 429 494 35,000  Level Atlanta Center
Sun 05:25:34 PM 32.9831 -82.0653 355° North 429 494 35,000  Level Atlanta Center
Sun 05:26:34 PM 33.1000 -82.0575 North 423 487 35,000  Level Atlanta Center
Sun 05:27:34 PM 33.2208 -82.0497 North 423 487 35,000  Level Atlanta Center
Sun 05:28:34 PM 33.3397 -82.0422 North 423 487 35,000  Level Atlanta Center
Sun 05:29:34 PM 33.4586 -82.0319 North 423 487 35,000  Level Atlanta Center
Sun 05:30:34 PM 33.5772 -82.0242 North 423 487 35,000  Level Atlanta Center
Sun 05:31:34 PM 33.6983 -82.0164 North 423 487 35,000  Level Atlanta Center
Sun 05:32:34 PM 33.8297 -82.0083 North 423 487 35,000  Level Atlanta Center
Sun 05:33:34 PM 33.9483 -82.0003 North 423 487 35,000  Level Atlanta Center
Sun 05:34:34 PM 34.0672 -81.9925 North 423 487 35,000  Level Atlanta Center
Sun 05:35:34 PM 34.1861 -81.9847 North 423 487 35,000  Level Atlanta Center
Sun 05:36:34 PM 34.3092 -81.9792 North 423 487 35,000  Level Atlanta Center
Sun 05:37:34 PM 34.4258 -81.9686 North 423 487 35,000  Level Atlanta Center
Sun 05:38:34 PM 34.5469 -81.9633 North 423 487 35,000  Level Atlanta Center
Sun 05:39:34 PM 34.6636 -81.9528 North 423 487 35,000  Level Atlanta Center
Sun 05:40:34 PM 34.7822 -81.9447 North 423 487 35,000  Level Atlanta Center
Sun 05:41:34 PM 34.9033 -81.9392 North 418 481 35,000  Level Atlanta Center
Sun 05:42:34 PM 35.0075 -81.9314 North 418 481 35,000  Level Atlanta Center
Sun 05:43:34 PM 35.1283 -81.9258 North 418 481 35,000  Level Atlanta Center
Sun 05:44:34 PM 35.2431 -81.9231 North 418 481 35,000  Level Atlanta Center
Sun 05:45:34 PM 35.3639 -81.9172 North 418 481 35,000  Level Atlanta Center
Sun 05:46:34 PM 35.4850 -81.9117 North 418 481 35,000  Level Atlanta Center
Sun 05:47:34 PM 35.6142 -81.9058 North 418 481 35,000  Level Atlanta Center
Sun 05:48:34 PM 35.7331 -81.9000 North 423 487 35,000  Level Atlanta Center
Sun 05:49:34 PM 35.8539 -81.8942 North 423 487 35,000  Level Atlanta Center
Sun 05:50:34 PM 35.9728 -81.8861 North 423 487 35,000  Level Atlanta Center
Sun 05:51:34 PM 36.0936 -81.8828 North 423 487 35,000  Level Atlanta Center
Sun 05:52:34 PM 36.2103 -81.8772 North 423 487 35,000  Level Atlanta Center
Sun 05:53:34 PM 36.3289 -81.8689 North 423 487 35,000  Level Atlanta Center
Sun 05:54:34 PM 36.4497 -81.8631 North 423 487 35,000  Level Atlanta Center
Sun 05:56:43 PM 36.7022 -81.8497 North 432 497 35,000  Level Indianapolis Center
Sun 05:57:44 PM 36.8214 -81.8431 North 432 497 35,000  Level Indianapolis Center
Sun 05:58:46 PM 36.9419 -81.8378 North 432 497 35,000  Level Indianapolis Center
Sun 05:59:48 PM 37.0617 -81.8325 North 432 497 35,000 -293 Level Indianapolis Center
Sun 06:00:49 PM 37.2022 -81.8261 North 432 497 34,400 -488 Descending Indianapolis Center
Sun 06:01:51 PM 37.3236 -81.8275 359° North 433 498 34,000 -194 Descending Indianapolis Center
Sun 06:02:53 PM 37.4261 -81.8919 333° Northwest 415 478 34,000 -339 Level Indianapolis Center
Sun 06:03:55 PM 37.5242 -81.9581 332° Northwest 403 464 33,300 -780 Descending Indianapolis Center
Sun 06:04:56 PM 37.6253 -82.0272 332° Northwest 407 468 32,400 -976 Descending Indianapolis Center
Sun 06:05:58 PM 37.7475 -82.1117 331° Northwest 423 487 31,300 -968 Descending Indianapolis Center
Sun 06:07:00 PM 37.8528 -82.1839 332° Northwest 426 490 30,400 -1,016 Descending Indianapolis Center
Sun 06:08:02 PM 37.9561 -82.2564 331° Northwest 426 490 29,200 -1,161 Descending Indianapolis Center
Sun 06:09:04 PM 38.0583 -82.3275 331° Northwest 425 489 28,000 -585 Descending Indianapolis Center
Sun 06:10:05 PM 38.1481 -82.3894 332° Northwest 401 461 28,000 -439 Level Indianapolis Center
Sun 06:11:07 PM 38.2358 -82.4519 331° Northwest 373 429 27,100 -1,016 Descending Indianapolis Center
Sun 06:12:09 PM 38.3392 -82.5239 331° Northwest 356 410 25,900 -1,065 Descending Indianapolis Center
Sun 06:13:11 PM 38.4219 -82.5811 332° Northwest 345 397 24,900 -919 Descending Indianapolis Center
Sun 06:14:13 PM 38.5047 -82.6400 331° Northwest 343 395 24,000 -435 Descending Indianapolis Center
Sun 06:15:15 PM 38.5878 -82.7006 330° Northwest 343 395 24,000 -435 Level Indianapolis Center
Sun 06:16:17 PM 38.6694 -82.7561 332° Northwest 337 388 23,100 -1,317 Descending Indianapolis Center
Sun 06:17:18 PM 38.7506 -82.8147 331° Northwest 336 387 21,300 -1,854 Descending Indianapolis Center
Sun 06:18:20 PM 38.8308 -82.8714 331° Northwest 334 384 19,300 -1,839 Descending Indianapolis Center
Sun 06:19:22 PM 38.9072 -82.9281 330° Northwest 323 372 17,500 -1,742 Descending Indianapolis Center
Sun 06:20:24 PM 38.9953 -82.9908 331° Northwest 306 352 15,700 -1,452 Descending Indianapolis Center
Sun 06:21:26 PM 39.0683 -83.0428 331° Northwest 305 351 14,500 -1,161 Descending Indianapolis Center
Sun 06:22:28 PM 39.1506 -83.0692 346° North 322 371 13,300 -1,161 Descending Indianapolis Center
Sun 06:23:30 PM 39.2383 -83.0519 North 320 368 12,100 -1,100 Descending Indianapolis Center
Sun 06:24:28 PM 39.3303 -83.0361 North 322 371 11,100 -532 Descending Indianapolis Center
Sun 06:25:34 PM 39.4128 -83.0150 11° North 320 368 11,000 -49 Descending Indianapolis Center
Sun 06:26:30 PM 39.5042 -82.9989 North 299 344 11,000  Level Indianapolis Center
Sun 06:27:31 PM 39.5861 -82.9769 12° North 297 342 11,000 -694 Level Indianapolis Center
Sun 06:28:31 PM 39.6628 -82.9431 19° North 293 337 9,600 -1,636 Descending Indianapolis Center
Sun 06:29:32 PM 39.7397 -82.9089 19° North 294 338 7,700 -1,690 Descending Indianapolis Center
Sun 06:29:42 PM 39.7453 -82.9050 28° Northeast 297 342 7,600 -1,750 Descending Indianapolis Center
Sun 06:30:44 PM 39.8233 -82.8728 18° North 297 342 5,600 -1,768 Descending Indianapolis Center
Sun 06:31:34 PM 39.8969 -82.8442 17° North 269 310 4,300 -1,258 Descending Indianapolis Center
Sun 06:31:46 PM 39.8981 -82.8422 53° Northeast 289 333 4,300 -984 Level Indianapolis Center
Sun 06:32:35 PM 39.9508 -82.8061 28° Northeast 197 227 3,300 -1,065 Descending Indianapolis Center
Sun 06:32:48 PM 39.9600 -82.7975 36° Northeast 222 255 3,200 -984 Descending Indianapolis Center
Sun 06:33:36 PM 39.9897 -82.7961 North 139 160 2,300 -1,065 Descending Indianapolis Center
Sun 06:33:50 PM 39.9958 -82.8031 319° Northwest 177 204 2,100 -885 Descending Indianapolis Center
Sun 06:34:37 PM 39.9997 -82.8467 277° West 139 160 1,400 -871 Descending Indianapolis Center
Sun 06:34:52 PM 40.0008 -82.8567 278° West 159 183 1,200 -800 Descending Indianapolis Center
Sun 06:36:00 PM 39.9833 -82.8833 14° North  Level FlightAware Approximate

Login

Don't have an account? Register now (free) for customized features, flight alerts, and more!